createdAt,value
2023-12-09T00:01:46.775Z,100746.34
2023-12-09T00:04:14.038Z,100753.25
2023-12-09T00:06:49.092Z,100748.94
2023-12-09T00:09:19.367Z,100750.69
2023-12-09T00:11:46.916Z,100750.69
2023-12-09T00:14:14.174Z,100755.88
2023-12-09T00:16:41.892Z,100748.94
2023-12-09T00:19:10.728Z,100745.47
2023-12-09T00:21:38.204Z,100746.38
2023-12-09T00:24:05.677Z,100751.53
2023-12-09T00:26:32.921Z,100748.09
2023-12-09T00:29:00.246Z,100758.44
2023-12-09T00:31:27.613Z,100753.28
2023-12-09T00:33:54.978Z,100759.34
2023-12-09T00:36:22.386Z,100757.59
2023-12-09T00:38:49.651Z,100764.53
2023-12-09T00:41:16.916Z,100759.34
2023-12-09T00:43:44.192Z,100761.06
2023-12-09T00:46:12.014Z,100761.06
2023-12-09T00:48:39.376Z,100759.34
2023-12-09T00:51:06.918Z,100767.09
2023-12-09T00:53:34.110Z,100760.22
2023-12-09T00:56:01.348Z,100756.72
2023-12-09T00:58:28.542Z,100765.41
2023-12-09T01:00:55.781Z,100768.00
2023-12-09T01:03:23.159Z,100777.50
2023-12-09T01:05:50.440Z,100767.13
2023-12-09T01:08:17.633Z,100767.09
2023-12-09T01:10:44.868Z,100780.09
2023-12-09T01:13:12.078Z,100782.69
2023-12-09T01:15:39.390Z,100779.25
2023-12-09T01:18:06.792Z,100780.09
2023-12-09T01:20:34.102Z,100780.09
2023-12-09T01:23:01.326Z,100780.94
2023-12-09T01:25:28.559Z,100784.44
2023-12-09T01:27:55.797Z,100785.31
2023-12-09T01:30:23.018Z,100783.53
2023-12-09T01:32:50.325Z,100781.81
2023-12-09T01:35:17.588Z,100783.56
2023-12-09T01:37:44.832Z,100776.63
2023-12-09T01:40:15.723Z,100778.34
2023-12-09T01:42:43.472Z,100771.44
2023-12-09T01:45:11.509Z,100778.34
2023-12-09T01:47:40.256Z,100786.16
2023-12-09T01:50:08.676Z,100771.44
2023-12-09T01:52:36.390Z,100778.38
2023-12-09T01:55:07.176Z,100776.63
2023-12-09T01:57:34.486Z,100772.28
2023-12-09T02:00:02.795Z,100773.16
2023-12-09T02:02:30.424Z,100770.56
2023-12-09T02:04:57.988Z,100777.50
2023-12-09T02:07:25.256Z,100768.84
2023-12-09T02:09:52.676Z,100769.69
2023-12-09T02:12:42.286Z,100764.50
2023-12-09T02:15:22.301Z,100765.34
2023-12-09T02:18:00.513Z,100762.75
2023-12-09T02:20:28.196Z,100773.16
2023-12-09T02:23:12.213Z,100774.00
2023-12-09T02:25:40.436Z,100767.97
2023-12-09T02:28:14.555Z,100776.63
2023-12-09T02:30:58.250Z,100776.63
2023-12-09T02:33:26.403Z,100767.09
2023-12-09T02:35:55.709Z,100780.09
2023-12-09T02:38:23.457Z,100774.03
2023-12-09T02:40:51.473Z,100762.75
2023-12-09T02:43:19.148Z,100771.44
2023-12-09T02:45:47.144Z,100764.50
2023-12-09T02:48:14.588Z,100763.63
2023-12-09T02:50:42.031Z,100762.75
2023-12-09T02:53:09.204Z,100764.50
2023-12-09T02:55:36.437Z,100758.44
2023-12-09T02:58:03.605Z,100760.19
2023-12-09T03:00:30.945Z,100754.13
2023-12-09T03:02:58.452Z,100760.19
2023-12-09T03:05:26.476Z,100759.31
2023-12-09T03:07:53.771Z,100757.56
2023-12-09T03:10:21.064Z,100755.84
2023-12-09T03:12:48.491Z,100754.13
2023-12-09T03:15:15.737Z,100759.31
2023-12-09T03:17:43.913Z,100761.88
2023-12-09T03:20:11.620Z,100754.97
2023-12-09T03:22:38.825Z,100760.16
2023-12-09T03:25:06.360Z,100767.13
2023-12-09T03:27:33.651Z,100761.91
2023-12-09T03:30:01.006Z,100762.75
2023-12-09T03:32:28.490Z,100763.63
2023-12-09T03:34:55.839Z,100761.91
2023-12-09T03:37:23.037Z,100759.31
2023-12-09T03:39:50.318Z,100762.75
2023-12-09T03:42:17.533Z,100756.72
2023-12-09T03:44:44.752Z,100757.56
2023-12-09T03:47:18.713Z,100760.19
2023-12-09T03:49:52.988Z,100763.63
2023-12-09T03:52:20.200Z,100762.75
2023-12-09T03:54:47.426Z,100761.91
2023-12-09T03:57:15.947Z,100764.50
2023-12-09T03:59:43.328Z,100764.50
2023-12-09T04:02:10.577Z,100763.63
2023-12-09T04:04:43.588Z,100764.47
2023-12-09T04:07:10.819Z,100774.03
2023-12-09T04:09:38.292Z,100774.03
2023-12-09T04:12:05.792Z,100785.25
2023-12-09T04:14:33.026Z,100778.34
2023-12-09T04:17:00.226Z,100780.94
2023-12-09T04:19:27.476Z,100781.81
2023-12-09T04:21:54.835Z,100780.06
2023-12-09T04:24:22.059Z,100774.00
2023-12-09T04:26:49.287Z,100774.84
2023-12-09T04:29:17.036Z,100777.47
2023-12-09T04:31:44.418Z,100775.72
2023-12-09T04:34:11.843Z,100778.31
2023-12-09T04:36:39.295Z,100779.19
2023-12-09T04:39:06.891Z,100769.66
2023-12-09T04:41:34.172Z,100773.13
2023-12-09T04:44:01.710Z,100765.34
2023-12-09T04:46:29.342Z,100771.41
2023-12-09T04:48:57.714Z,100761.88
2023-12-09T04:51:25.134Z,100771.38
2023-12-09T04:53:52.481Z,100773.13
2023-12-09T04:56:20.231Z,100764.47
2023-12-09T04:58:47.480Z,100755.81
2023-12-09T05:01:14.828Z,100754.91
2023-12-09T05:03:42.217Z,100755.78
2023-12-09T05:06:10.125Z,100750.59
2023-12-09T05:08:37.453Z,100755.78
2023-12-09T05:11:04.736Z,100751.47
2023-12-09T05:13:31.937Z,100745.38
2023-12-09T05:15:59.152Z,100747.97
2023-12-09T05:18:26.523Z,100742.78
2023-12-09T05:20:53.934Z,100741.06
2023-12-09T05:23:21.193Z,100739.34
2023-12-09T05:25:50.616Z,100740.19
2023-12-09T05:28:17.803Z,100740.19
2023-12-09T05:30:45.036Z,100728.94
2023-12-09T05:33:12.428Z,100728.06
2023-12-09T05:35:39.727Z,100715.94
2023-12-09T05:38:07.010Z,100721.13
2023-12-09T05:40:35.948Z,100707.28
2023-12-09T05:43:03.657Z,100710.72
2023-12-09T05:45:30.954Z,100712.47
2023-12-09T05:47:58.878Z,100709.88
2023-12-09T05:50:26.271Z,100713.34
2023-12-09T05:52:53.512Z,100706.41
2023-12-09T05:55:20.705Z,100709.88
2023-12-09T05:57:47.891Z,100719.38
2023-12-09T06:00:15.233Z,100715.91
2023-12-09T06:02:42.582Z,100712.47
2023-12-09T06:05:10.503Z,100715.06
2023-12-09T06:07:37.842Z,100720.28
2023-12-09T06:10:06.689Z,100715.94
2023-12-09T06:12:34.130Z,100711.53
2023-12-09T06:15:01.529Z,100715.00
2023-12-09T06:17:28.891Z,100721.09
2023-12-09T06:19:56.224Z,100709.81
2023-12-09T06:22:23.683Z,100715.00
2023-12-09T06:24:52.345Z,100715.00
2023-12-09T06:27:19.907Z,100721.97
2023-12-09T06:29:47.184Z,100717.59
2023-12-09T06:32:14.994Z,100714.13
2023-12-09T06:34:42.372Z,100721.97
2023-12-09T06:37:09.813Z,100728.00
2023-12-09T06:39:37.302Z,100736.69
2023-12-09T06:42:05.145Z,100738.41
2023-12-09T06:44:32.404Z,100741.88
2023-12-09T06:46:59.597Z,100741.00
2023-12-09T06:49:26.863Z,100744.47
2023-12-09T06:51:54.268Z,100747.94
2023-12-09T06:54:21.510Z,100740.13
2023-12-09T06:56:48.845Z,100738.38
2023-12-09T06:59:16.245Z,100740.97
2023-12-09T07:01:44.476Z,100738.38
2023-12-09T07:04:13.676Z,100733.19
2023-12-09T07:06:41.087Z,100733.19
2023-12-09T07:09:09.680Z,100721.06
2023-12-09T07:11:37.203Z,100723.63
2023-12-09T07:14:04.408Z,100725.41
2023-12-09T07:16:31.680Z,100728.00
2023-12-09T07:19:01.895Z,100741.88
2023-12-09T07:21:29.812Z,100734.94
2023-12-09T07:24:00.005Z,100743.59
2023-12-09T07:26:27.247Z,100747.03
2023-12-09T07:28:55.582Z,100738.34
2023-12-09T07:31:22.804Z,100733.16
2023-12-09T07:33:50.223Z,100740.09
2023-12-09T07:36:18.503Z,100726.19
2023-12-09T07:38:45.703Z,100735.75
2023-12-09T07:41:12.929Z,100733.16
2023-12-09T07:43:41.096Z,100735.75
2023-12-09T07:46:08.440Z,100740.03
2023-12-09T07:48:35.800Z,100735.72
2023-12-09T07:51:03.222Z,100738.28
2023-12-09T07:53:30.996Z,100751.25
2023-12-09T07:55:58.392Z,100757.28
2023-12-09T07:58:25.678Z,100746.91
2023-12-09T08:00:54.115Z,100726.94
2023-12-09T08:03:21.470Z,100728.66
2023-12-09T08:05:49.283Z,100730.38
2023-12-09T08:08:16.660Z,100732.97
2023-12-09T08:10:44.090Z,100739.88
2023-12-09T08:13:12.865Z,100739.00
2023-12-09T08:15:40.097Z,100745.06
2023-12-09T08:18:07.597Z,100742.47
2023-12-09T08:20:36.034Z,100731.19
2023-12-09T08:23:04.652Z,100726.81
2023-12-09T08:25:31.882Z,100726.81
2023-12-09T08:27:59.123Z,100721.59
2023-12-09T08:30:26.406Z,100710.34
2023-12-09T08:32:53.922Z,100719.88
2023-12-09T08:35:21.620Z,100718.13
2023-12-09T08:37:48.848Z,100719.81
2023-12-09T08:40:16.190Z,100715.47
2023-12-09T08:42:45.508Z,100709.41
2023-12-09T08:45:18.410Z,100715.44
2023-12-09T08:47:46.278Z,100711.94
2023-12-09T08:50:22.498Z,100707.59
2023-12-09T08:52:55.599Z,100710.19
2023-12-09T08:55:23.115Z,100698.91
2023-12-09T08:57:52.489Z,100701.50
2023-12-09T09:00:22.149Z,100703.22
2023-12-09T09:02:50.836Z,100697.16
2023-12-09T09:05:18.075Z,100691.09
2023-12-09T09:07:46.010Z,100692.78
2023-12-09T09:10:13.373Z,100691.88
2023-12-09T09:12:40.742Z,100688.38
2023-12-09T09:15:09.300Z,100685.78
2023-12-09T09:17:37.315Z,100694.44
2023-12-09T09:20:06.555Z,100689.16
2023-12-09T09:22:38.380Z,100703.94
2023-12-09T09:25:05.996Z,100712.59
2023-12-09T09:27:33.381Z,100706.50
2023-12-09T09:30:00.893Z,100701.25
2023-12-09T09:32:29.014Z,100705.56
2023-12-09T09:34:56.745Z,100705.63
2023-12-09T09:37:24.433Z,100703.81
2023-12-09T09:39:52.564Z,100700.34
2023-12-09T09:42:37.904Z,100708.13
2023-12-09T09:45:31.472Z,100701.13
2023-12-09T09:48:05.560Z,100698.50
2023-12-09T09:50:41.859Z,100690.66
2023-12-09T09:53:10.735Z,100682.81
2023-12-09T09:55:40.660Z,100684.53
2023-12-09T09:58:08.278Z,100678.41
2023-12-09T10:00:35.653Z,100668.88
2023-12-09T10:03:04.496Z,100672.31
2023-12-09T10:05:38.162Z,100657.56
2023-12-09T10:08:06.636Z,100656.69
2023-12-09T10:10:35.756Z,100649.72
2023-12-09T10:13:05.196Z,100647.09
2023-12-09T10:15:37.748Z,100643.66
2023-12-09T10:18:13.396Z,100639.28
2023-12-09T10:20:40.708Z,100633.16
2023-12-09T10:23:09.543Z,100641.81
2023-12-09T10:25:37.120Z,100640.03
2023-12-09T10:28:06.635Z,100632.16
2023-12-09T10:30:33.960Z,100629.53
2023-12-09T10:33:01.701Z,100626.84
2023-12-09T10:35:30.123Z,100612.94
2023-12-09T10:38:04.855Z,100614.59
2023-12-09T10:40:38.119Z,100606.00
2023-12-09T10:43:05.983Z,100604.25
2023-12-09T10:45:33.563Z,100599.78
2023-12-09T10:48:01.092Z,100593.72
2023-12-09T10:50:28.386Z,100589.34
2023-12-09T10:52:55.605Z,100582.41
2023-12-09T10:55:22.930Z,100580.59
2023-12-09T10:58:02.082Z,100585.78
2023-12-09T11:00:31.338Z,100581.41
2023-12-09T11:03:02.162Z,100576.19
2023-12-09T11:05:29.638Z,100576.94
2023-12-09T11:07:58.642Z,100562.19
2023-12-09T11:10:29.073Z,100559.47
2023-12-09T11:12:56.496Z,100551.63
2023-12-09T11:15:32.265Z,100549.81
2023-12-09T11:18:13.463Z,100553.28
2023-12-09T11:20:42.223Z,100547.16
2023-12-09T11:23:11.674Z,100546.31
2023-12-09T11:25:43.300Z,100529.75
2023-12-09T11:28:14.026Z,100523.69
2023-12-09T11:30:50.103Z,100520.16
2023-12-09T11:33:17.674Z,100533.13
2023-12-09T11:35:47.547Z,100535.75
2023-12-09T11:38:16.031Z,100538.31
2023-12-09T11:40:43.760Z,100528.66
2023-12-09T11:43:11.339Z,100520.75
2023-12-09T11:45:38.674Z,100507.63
2023-12-09T11:48:07.061Z,100505.03
2023-12-09T11:50:35.079Z,100499.81
2023-12-09T11:53:02.322Z,100495.44
2023-12-09T11:55:30.426Z,100491.09
2023-12-09T11:57:57.691Z,100480.56
2023-12-09T12:00:24.967Z,100474.53
2023-12-09T12:02:52.185Z,100464.13
2023-12-09T12:05:19.532Z,100463.13
2023-12-09T12:07:46.891Z,100459.63
2023-12-09T12:10:15.846Z,100456.03
2023-12-09T12:12:44.846Z,100457.81
2023-12-09T12:15:12.274Z,100460.41
2023-12-09T12:17:40.376Z,100453.47
2023-12-09T12:20:10.294Z,100447.25
2023-12-09T12:22:37.591Z,100449.88
2023-12-09T12:25:05.401Z,100446.34
2023-12-09T12:27:36.973Z,100449.84
2023-12-09T12:30:05.265Z,100451.50
2023-12-09T12:32:39.188Z,100438.41
2023-12-09T12:35:09.841Z,100434.03
2023-12-09T12:37:37.079Z,100428.88
2023-12-09T12:40:04.733Z,100415.81
2023-12-09T12:42:32.449Z,100405.47
2023-12-09T12:45:00.040Z,100394.88
2023-12-09T12:47:27.348Z,100390.38
2023-12-09T12:49:54.703Z,100384.25
2023-12-09T12:52:22.099Z,100386.94
2023-12-09T12:54:49.352Z,100384.31
2023-12-09T12:57:16.585Z,100381.47
2023-12-09T12:59:44.373Z,100378.00
2023-12-09T13:02:11.673Z,100378.72
2023-12-09T13:04:38.984Z,100377.69
2023-12-09T13:07:06.207Z,100374.97
2023-12-09T13:09:33.495Z,100362.75
2023-12-09T13:12:00.825Z,100359.06
2023-12-09T13:14:28.039Z,100354.72
2023-12-09T13:16:56.232Z,100351.06
2023-12-09T13:19:23.550Z,100341.50
2023-12-09T13:21:50.851Z,100339.72
2023-12-09T13:24:18.121Z,100330.16
2023-12-09T13:26:45.652Z,100324.13
2023-12-09T13:29:12.861Z,100324.03
2023-12-09T13:31:40.086Z,100322.28
2023-12-09T13:34:07.495Z,100329.22
2023-12-09T13:36:39.656Z,100328.38
2023-12-09T13:39:12.577Z,100325.78
2023-12-09T13:41:41.021Z,100320.66
2023-12-09T13:44:08.241Z,100321.50
2023-12-09T13:46:35.748Z,100321.53
2023-12-09T13:49:03.314Z,100319.59
2023-12-09T13:51:30.670Z,100315.16
2023-12-09T13:53:58.563Z,100307.31
2023-12-09T13:56:26.539Z,100323.94
2023-12-09T13:58:53.851Z,100316.91
2023-12-09T14:01:22.325Z,100316.03
2023-12-09T14:03:49.959Z,100297.78
2023-12-09T14:06:17.531Z,100283.03
2023-12-09T14:08:44.721Z,100291.84
2023-12-09T14:11:15.485Z,100275.34
2023-12-09T14:13:42.796Z,100280.75
2023-12-09T14:16:10.498Z,100262.41
2023-12-09T14:18:41.143Z,100265.09
2023-12-09T14:21:08.594Z,100255.50
2023-12-09T14:23:35.844Z,100266.09
2023-12-09T14:26:04.483Z,100252.03
2023-12-09T14:28:31.663Z,100246.75
2023-12-09T14:30:58.881Z,100238.06
2023-12-09T14:33:26.368Z,100226.88
2023-12-09T14:35:53.933Z,100217.44
2023-12-09T14:38:21.203Z,100208.91
2023-12-09T14:40:48.462Z,100225.34
2023-12-09T14:43:15.690Z,100211.50
2023-12-09T14:45:43.012Z,100207.22
2023-12-09T14:48:10.471Z,100197.66
2023-12-09T14:50:37.893Z,100191.88
2023-12-09T14:53:06.110Z,100193.59
2023-12-09T14:55:33.382Z,100194.66
2023-12-09T14:58:00.935Z,100189.53
2023-12-09T15:00:28.482Z,100194.66
2023-12-09T15:02:56.268Z,100186.88
2023-12-09T15:05:23.678Z,100184.34
2023-12-09T15:07:50.947Z,100180.03
2023-12-09T15:10:18.254Z,100170.69
2023-12-09T15:12:46.211Z,100180.25
2023-12-09T15:15:13.596Z,100170.84
2023-12-09T15:17:41.002Z,100163.94
2023-12-09T15:20:10.216Z,100167.53
2023-12-09T15:22:38.325Z,100164.13
2023-12-09T15:25:06.086Z,100151.94
2023-12-09T15:27:33.653Z,100152.91
2023-12-09T15:30:04.988Z,100145.28
2023-12-09T15:32:33.186Z,100143.44
2023-12-09T15:35:01.013Z,100127.13
2023-12-09T15:37:28.316Z,100126.50
2023-12-09T15:39:55.540Z,100122.19
2023-12-09T15:42:22.914Z,100117.75
2023-12-09T15:44:50.248Z,100115.19
2023-12-09T15:47:18.403Z,100106.53
2023-12-09T15:49:45.819Z,100103.09
2023-12-09T15:52:13.258Z,100107.47
2023-12-09T15:54:40.578Z,100099.63
2023-12-09T15:57:08.114Z,100095.41
2023-12-09T15:59:35.373Z,100085.94
2023-12-09T16:02:02.656Z,100082.47
2023-12-09T16:04:29.926Z,100087.75
2023-12-09T16:06:57.423Z,100078.19
2023-12-09T16:09:24.673Z,100073.91
2023-12-09T16:11:51.952Z,100079.16
2023-12-09T16:14:19.178Z,100068.69
2023-12-09T16:16:46.380Z,100069.66
2023-12-09T16:19:13.848Z,100062.88
2023-12-09T16:21:41.138Z,100058.50
2023-12-09T16:24:08.421Z,100058.56
2023-12-09T16:26:35.643Z,100053.28
2023-12-09T16:29:02.924Z,100052.63
2023-12-09T16:31:30.165Z,100042.13
2023-12-09T16:33:57.647Z,100041.25
2023-12-09T16:36:25.698Z,100023.88
2023-12-09T16:38:55.684Z,100010.94
2023-12-09T16:41:23.864Z,100003.38
2023-12-09T16:43:51.147Z,100005.84
2023-12-09T16:46:18.400Z,100005.06
2023-12-09T16:48:45.752Z,99997.25
2023-12-09T16:51:13.106Z,99997.56
2023-12-09T16:53:40.396Z,99982.66
2023-12-09T16:56:08.152Z,99977.53
2023-12-09T16:58:35.339Z,99968.13
2023-12-09T17:01:02.648Z,99967.22
2023-12-09T17:03:30.008Z,99968.13
2023-12-09T17:05:57.406Z,99965.50
2023-12-09T17:08:24.679Z,99962.91
2023-12-09T17:10:51.904Z,99979.53
2023-12-09T17:13:19.091Z,99981.41
2023-12-09T17:15:46.349Z,99963.09
2023-12-09T17:18:14.011Z,99963.06
2023-12-09T17:20:41.267Z,99955.28
2023-12-09T17:23:08.443Z,99945.78
2023-12-09T17:25:35.629Z,99940.69
2023-12-09T17:28:03.371Z,99941.56
2023-12-09T17:30:30.682Z,99932.16
2023-12-09T17:32:58.045Z,99928.59
2023-12-09T17:35:29.862Z,99926.06
2023-12-09T17:37:57.364Z,99911.44
2023-12-09T17:40:24.611Z,99912.25
2023-12-09T17:42:52.272Z,99891.66
2023-12-09T17:45:19.566Z,99889.06
2023-12-09T17:47:46.870Z,99876.97
2023-12-09T17:50:14.278Z,99856.00
2023-12-09T17:52:42.116Z,99858.78
2023-12-09T17:55:09.870Z,99851.78
2023-12-09T17:57:37.277Z,99831.97
2023-12-09T18:00:05.334Z,99825.03
2023-12-09T18:02:32.615Z,99832.81
2023-12-09T18:04:59.908Z,99838.03
2023-12-09T18:07:27.725Z,99842.44
2023-12-09T18:09:55.184Z,99841.63
2023-12-09T18:12:22.430Z,99831.28
2023-12-09T18:14:49.718Z,99822.56
2023-12-09T18:17:16.957Z,99815.66
2023-12-09T18:19:46.960Z,99818.44
2023-12-09T18:22:14.800Z,99815.97
2023-12-09T18:24:42.158Z,99802.81
2023-12-09T18:27:09.588Z,99796.75
2023-12-09T18:29:36.883Z,99799.44
2023-12-09T18:32:05.640Z,99783.88
2023-12-09T18:34:32.999Z,99759.66
2023-12-09T18:37:00.229Z,99756.19
2023-12-09T18:39:27.469Z,99748.44
2023-12-09T18:41:55.125Z,99752.81
2023-12-09T18:44:22.339Z,99754.56
2023-12-09T18:46:49.558Z,99747.78
2023-12-09T18:49:16.854Z,99740.72
2023-12-09T18:51:44.274Z,99742.53
2023-12-09T18:54:11.579Z,99733.81
2023-12-09T18:56:38.977Z,99724.38
2023-12-09T18:59:06.222Z,99728.69
2023-12-09T19:01:33.533Z,99720.06
2023-12-09T19:04:03.182Z,99720.09
2023-12-09T19:06:34.005Z,99716.59
2023-12-09T19:09:03.850Z,99710.47
2023-12-09T19:11:31.433Z,99687.13
2023-12-09T19:13:58.670Z,99684.53
2023-12-09T19:16:25.869Z,99676.72
2023-12-09T19:18:53.094Z,99688.84
2023-12-09T19:21:20.457Z,99700.16
2023-12-09T19:23:48.384Z,99696.63
2023-12-09T19:26:16.244Z,99690.72
2023-12-09T19:28:43.483Z,99691.44
2023-12-09T19:31:10.696Z,99677.56
2023-12-09T19:33:37.986Z,99669.75
2023-12-09T19:36:06.474Z,99667.25
2023-12-09T19:38:33.681Z,99660.28
2023-12-09T19:41:00.946Z,99654.25
2023-12-09T19:43:28.129Z,99649.09
2023-12-09T19:45:55.386Z,99644.78
2023-12-09T19:48:22.706Z,99645.50
2023-12-09T19:50:50.006Z,99639.59
2023-12-09T19:53:17.275Z,99643.00
2023-12-09T19:55:44.469Z,99642.19
2023-12-09T19:58:11.673Z,99641.28
2023-12-09T20:00:39.685Z,99638.72
2023-12-09T20:03:07.892Z,99632.66
2023-12-09T20:05:35.211Z,99622.31
2023-12-09T20:08:02.427Z,99614.53
2023-12-09T20:10:29.652Z,99607.50
2023-12-09T20:12:56.861Z,99604.09
2023-12-09T20:15:28.006Z,99594.53
2023-12-09T20:17:55.360Z,99599.75
2023-12-09T20:20:27.161Z,99594.63
2023-12-09T20:22:54.744Z,99595.38
2023-12-09T20:25:22.021Z,99591.03
2023-12-09T20:27:49.244Z,99596.22
2023-12-09T20:30:16.640Z,99590.03
2023-12-09T20:32:44.375Z,99585.81
2023-12-09T20:35:12.126Z,99580.50
2023-12-09T20:37:39.667Z,99571.91
2023-12-09T20:40:07.464Z,99569.31
2023-12-09T20:42:35.673Z,99569.31
2023-12-09T20:45:04.090Z,99560.72
2023-12-09T20:47:31.409Z,99553.84
2023-12-09T20:49:58.669Z,99553.78
2023-12-09T20:52:26.075Z,99544.28
2023-12-09T20:54:53.486Z,99545.16
2023-12-09T20:57:20.817Z,99547.75
2023-12-09T20:59:48.019Z,99547.75
2023-12-09T21:02:15.323Z,99539.94
2023-12-09T21:04:45.745Z,99535.66
2023-12-09T21:07:13.045Z,99534.66
2023-12-09T21:09:41.029Z,99532.19
2023-12-09T21:12:09.105Z,99531.28
2023-12-09T21:14:36.697Z,99520.03
2023-12-09T21:17:04.134Z,99521.72
2023-12-09T21:19:35.367Z,99509.72
2023-12-09T21:22:08.109Z,99516.53
2023-12-09T21:24:35.836Z,99503.66
2023-12-09T21:27:03.211Z,99510.50
2023-12-09T21:29:30.443Z,99522.63
2023-12-09T21:31:57.664Z,99519.16
2023-12-09T21:34:25.065Z,99507.03
2023-12-09T21:36:52.508Z,99494.97
2023-12-09T21:39:19.835Z,99499.13
2023-12-09T21:41:47.580Z,99488.75
2023-12-09T21:44:14.909Z,99483.53
2023-12-09T21:46:42.665Z,99488.75
2023-12-09T21:49:09.969Z,99489.53
2023-12-09T21:51:41.248Z,99484.25
2023-12-09T21:54:08.992Z,99479.97
2023-12-09T21:56:36.371Z,99475.53
2023-12-09T21:59:03.565Z,99463.28
2023-12-09T22:01:30.896Z,99463.28
2023-12-09T22:03:58.203Z,99458.13
2023-12-09T22:06:25.446Z,99458.75
2023-12-09T22:08:52.628Z,99457.06
2023-12-09T22:11:19.903Z,99449.13
2023-12-09T22:13:47.075Z,99447.34
2023-12-09T22:16:20.289Z,99427.44
2023-12-09T22:18:48.378Z,99433.44
2023-12-09T22:21:15.660Z,99428.31
2023-12-09T22:23:43.451Z,99424.63
2023-12-09T22:26:10.657Z,99416.03
2023-12-09T22:28:40.204Z,99417.63
2023-12-09T22:31:10.312Z,99414.91
2023-12-09T22:33:41.130Z,99413.09
2023-12-09T22:36:09.840Z,99413.78
2023-12-09T22:38:37.270Z,99407.81
2023-12-09T22:41:04.735Z,99410.19
2023-12-09T22:43:31.988Z,99422.16
2023-12-09T22:45:59.187Z,99409.13
2023-12-09T22:48:26.671Z,99417.72
2023-12-09T22:50:54.855Z,99421.91
2023-12-09T22:53:22.223Z,99421.06
2023-12-09T22:55:49.421Z,99414.03
2023-12-09T22:58:16.607Z,99415.78
2023-12-09T23:00:44.786Z,99404.53
2023-12-09T23:03:12.119Z,99402.75
2023-12-09T23:05:39.356Z,99399.25
2023-12-09T23:08:06.592Z,99392.38
2023-12-09T23:10:33.987Z,99395.88
2023-12-09T23:13:01.318Z,99398.41
2023-12-09T23:15:28.608Z,99393.19
2023-12-09T23:17:55.975Z,99400.19
2023-12-09T23:20:23.280Z,99394.94
2023-12-09T23:22:50.475Z,99388.91
2023-12-09T23:25:17.660Z,99382.03
2023-12-09T23:27:44.876Z,99385.44
2023-12-09T23:30:12.454Z,99375.03
2023-12-09T23:32:39.774Z,99367.25
2023-12-09T23:35:07.094Z,99367.31
2023-12-09T23:37:34.280Z,99362.09
2023-12-09T23:40:01.531Z,99362.97
2023-12-09T23:42:29.376Z,99369.09
2023-12-09T23:44:56.834Z,99360.47
2023-12-09T23:47:24.138Z,99375.34
2023-12-09T23:49:51.354Z,99373.56
2023-12-09T23:52:18.543Z,99374.53
2023-12-09T23:54:45.747Z,99372.06
2023-12-09T23:57:13.194Z,99374.66
2023-12-09T23:59:40.435Z,99374.66
